createdAt,value
2017-07-23T00:00:47.630Z,91.90
2017-07-23T00:03:15.870Z,92.80
2017-07-23T00:05:44.149Z,93.00
2017-07-23T00:08:12.410Z,93.30
2017-07-23T00:10:40.672Z,92.30
2017-07-23T00:13:09.137Z,92.20
2017-07-23T00:15:37.393Z,92.10
2017-07-23T00:18:05.654Z,92.80
2017-07-23T00:20:33.917Z,92.40
2017-07-23T00:23:02.159Z,92.60
2017-07-23T00:25:29.726Z,92.60
2017-07-23T00:27:57.961Z,93.30
2017-07-23T00:30:25.439Z,93.30
2017-07-23T00:32:53.007Z,92.70
2017-07-23T00:35:20.506Z,93.20
2017-07-23T00:37:48.766Z,92.90
2017-07-23T00:40:16.271Z,92.80
2017-07-23T00:42:43.816Z,93.40
2017-07-23T00:45:11.358Z,92.90
2017-07-23T00:47:38.826Z,93.00
2017-07-23T00:50:06.303Z,93.00
2017-07-23T00:52:33.881Z,92.10
2017-07-23T00:55:02.126Z,92.00
2017-07-23T00:57:30.358Z,92.00
2017-07-23T00:59:57.938Z,92.20
2017-07-23T01:02:26.201Z,92.40
2017-07-23T01:04:54.455Z,92.20
2017-07-23T01:07:22.809Z,92.00
2017-07-23T01:09:51.083Z,92.40
2017-07-23T01:12:19.351Z,92.50
2017-07-23T01:14:47.104Z,92.50
2017-07-23T01:17:14.642Z,92.50
2017-07-23T01:19:42.882Z,92.30
2017-07-23T01:22:11.357Z,92.00
2017-07-23T01:24:39.630Z,92.20
2017-07-23T01:27:07.102Z,92.20
2017-07-23T01:29:34.811Z,92.40
2017-07-23T01:32:03.046Z,92.90
2017-07-23T01:34:30.614Z,92.80
2017-07-23T01:36:59.077Z,92.60
2017-07-23T01:39:26.586Z,92.60
2017-07-23T01:41:54.846Z,93.40
2017-07-23T01:44:23.086Z,91.90
2017-07-23T01:46:50.755Z,91.90
2017-07-23T01:49:18.991Z,92.50
2017-07-23T01:51:46.553Z,92.50
2017-07-23T01:54:14.809Z,92.80
2017-07-23T01:56:43.095Z,92.80
2017-07-23T01:59:10.578Z,93.10
2017-07-23T02:01:38.058Z,92.90
2017-07-23T02:04:06.352Z,92.90
2017-07-23T02:06:33.865Z,92.90
2017-07-23T02:09:02.133Z,92.80
2017-07-23T02:11:30.385Z,93.40
2017-07-23T02:13:58.633Z,93.00
2017-07-23T02:16:26.866Z,93.10
2017-07-23T02:18:54.334Z,93.00
2017-07-23T02:21:21.881Z,93.10
2017-07-23T02:23:50.160Z,93.30
2017-07-23T02:26:17.694Z,93.30
2017-07-23T02:28:45.955Z,93.50
2017-07-23T02:31:14.216Z,93.60
2017-07-23T02:33:41.874Z,93.60
2017-07-23T02:36:09.407Z,93.10
2017-07-23T02:38:36.950Z,93.20
2017-07-23T02:41:05.214Z,93.30
2017-07-23T02:43:32.856Z,93.20
2017-07-23T02:46:01.082Z,93.20
2017-07-23T02:48:28.745Z,93.10
2017-07-23T02:50:57.017Z,93.50
2017-07-23T02:53:25.255Z,93.90
2017-07-23T02:55:53.076Z,93.90
2017-07-23T02:58:20.538Z,93.70
2017-07-23T03:00:48.014Z,93.30
2017-07-23T03:03:16.279Z,94.00
2017-07-23T03:05:44.511Z,93.50
2017-07-23T03:08:12.079Z,93.50
2017-07-23T03:10:40.343Z,93.50
2017-07-23T03:13:07.805Z,93.50
2017-07-23T03:15:35.527Z,93.70
2017-07-23T03:18:03.791Z,93.50
2017-07-23T03:20:32.054Z,93.80
2017-07-23T03:23:00.310Z,93.60
2017-07-23T03:25:28.665Z,93.20
2017-07-23T03:27:56.902Z,93.60
2017-07-23T03:30:24.476Z,93.50
2017-07-23T03:32:52.834Z,94.00
2017-07-23T03:35:21.098Z,94.00
2017-07-23T03:37:49.357Z,94.20
2017-07-23T03:40:16.935Z,94.20
2017-07-23T03:42:45.174Z,94.70
2017-07-23T03:45:13.414Z,94.20
2017-07-23T03:47:40.910Z,94.00
2017-07-23T03:50:08.382Z,94.30
2017-07-23T03:52:35.878Z,94.00
2017-07-23T03:55:04.362Z,93.70
2017-07-23T03:57:31.834Z,93.70
2017-07-23T03:59:59.303Z,93.90
2017-07-23T04:02:26.866Z,94.10
2017-07-23T04:04:55.102Z,93.90
2017-07-23T04:07:22.782Z,93.90
2017-07-23T04:09:51.009Z,94.00
2017-07-23T04:12:18.473Z,94.00
2017-07-23T04:14:46.846Z,94.50
2017-07-23T04:17:15.106Z,94.60
2017-07-23T04:19:43.365Z,94.70
2017-07-23T04:22:11.822Z,94.40
2017-07-23T04:24:40.090Z,94.50
2017-07-23T04:27:08.346Z,94.50
2017-07-23T04:29:35.843Z,94.50
2017-07-23T04:32:03.337Z,94.70
2017-07-23T04:34:31.595Z,95.00
2017-07-23T04:36:59.958Z,95.50
2017-07-23T04:39:28.198Z,95.70
2017-07-23T04:41:55.778Z,95.50
2017-07-23T04:44:24.245Z,95.70
2017-07-23T04:46:51.722Z,95.60
2017-07-23T04:49:19.231Z,95.90
2017-07-23T04:51:47.589Z,95.70
2017-07-23T04:54:15.831Z,95.80
2017-07-23T04:56:44.213Z,95.80
2017-07-23T04:59:11.760Z,95.50
2017-07-23T05:01:40.018Z,95.30
2017-07-23T05:04:07.559Z,95.30
2017-07-23T05:06:35.822Z,95.60
2017-07-23T05:09:04.078Z,95.30
2017-07-23T05:11:32.323Z,95.50
2017-07-23T05:13:59.891Z,95.40
2017-07-23T05:16:27.431Z,95.50
2017-07-23T05:18:54.976Z,95.50
2017-07-23T05:21:23.334Z,95.40
2017-07-23T05:23:51.575Z,95.50
2017-07-23T05:26:19.046Z,95.40
2017-07-23T05:28:46.578Z,95.60
2017-07-23T05:31:14.840Z,94.90
2017-07-23T05:33:43.102Z,95.30
2017-07-23T05:36:10.642Z,95.60
2017-07-23T05:38:38.317Z,95.30
2017-07-23T05:41:05.809Z,94.90
2017-07-23T05:43:34.068Z,94.30
2017-07-23T05:46:02.334Z,94.40
2017-07-23T05:48:29.819Z,94.30
2017-07-23T05:50:57.318Z,94.30
2017-07-23T05:53:24.961Z,94.50
2017-07-23T05:55:53.226Z,93.80
2017-07-23T05:58:20.694Z,93.70
2017-07-23T06:00:48.406Z,92.20
2017-07-23T06:03:16.670Z,92.80
2017-07-23T06:05:44.925Z,92.10
2017-07-23T06:08:13.190Z,92.20
2017-07-23T06:10:41.458Z,91.40
2017-07-23T06:13:09.199Z,91.30
2017-07-23T06:15:37.441Z,90.30
2017-07-23T06:18:05.734Z,90.70
2017-07-23T06:20:33.217Z,90.60
2017-07-23T06:23:00.681Z,90.20
2017-07-23T06:25:28.241Z,91.40
2017-07-23T06:27:56.605Z,91.10
2017-07-23T06:30:24.845Z,91.40
2017-07-23T06:32:52.419Z,91.40
2017-07-23T06:35:19.894Z,90.70
2017-07-23T06:37:47.372Z,91.00
2017-07-23T06:40:14.842Z,91.30
2017-07-23T06:42:42.442Z,90.60
2017-07-23T06:45:10.678Z,90.20
2017-07-23T06:47:38.250Z,90.20
2017-07-23T06:50:05.797Z,89.60
2017-07-23T06:52:33.305Z,90.60
2017-07-23T06:55:00.801Z,90.40
2017-07-23T06:57:28.326Z,90.30
2017-07-23T06:59:56.566Z,89.30
2017-07-23T07:02:24.651Z,89.10
2017-07-23T07:04:52.118Z,87.40
2017-07-23T07:07:19.626Z,87.80
2017-07-23T07:09:47.889Z,87.60
2017-07-23T07:12:15.422Z,87.60
2017-07-23T07:14:43.668Z,87.00
2017-07-23T07:17:11.144Z,87.00
2017-07-23T07:19:38.618Z,85.80
2017-07-23T07:22:06.314Z,86.70
2017-07-23T07:24:34.582Z,82.80
2017-07-23T07:27:02.821Z,80.60
2017-07-23T07:29:30.369Z,80.60
2017-07-23T07:31:58.608Z,82.60
2017-07-23T07:34:26.066Z,82.40
2017-07-23T07:36:53.671Z,76.90
2017-07-23T07:39:21.204Z,78.10
2017-07-23T07:41:49.459Z,75.10
2017-07-23T07:44:17.723Z,75.20
2017-07-23T07:46:45.979Z,76.10
2017-07-23T07:49:14.214Z,73.40
2017-07-23T07:51:41.782Z,73.40
2017-07-23T07:54:10.018Z,72.40
2017-07-23T07:56:37.582Z,72.30
2017-07-23T07:59:05.846Z,66.80
2017-07-23T08:01:34.079Z,67.70
2017-07-23T08:04:01.578Z,67.70
2017-07-23T08:06:29.041Z,70.00
2017-07-23T08:08:56.515Z,71.00
2017-07-23T08:11:24.015Z,72.10
2017-07-23T08:13:51.522Z,73.60
2017-07-23T08:16:19.746Z,74.50
2017-07-23T08:18:47.222Z,74.50
2017-07-23T08:21:15.478Z,75.10
2017-07-23T08:23:43.843Z,72.90
2017-07-23T08:26:12.074Z,73.50
2017-07-23T08:28:39.543Z,73.50
2017-07-23T08:31:07.806Z,71.60
2017-07-23T08:33:35.342Z,71.50
2017-07-23T08:36:03.658Z,72.70
2017-07-23T08:38:31.149Z,72.70
2017-07-23T08:40:58.750Z,74.40
2017-07-23T08:43:27.222Z,71.70
2017-07-23T08:45:55.490Z,70.70
2017-07-23T08:48:23.020Z,70.60
2017-07-23T08:50:51.390Z,70.00
2017-07-23T08:53:19.626Z,69.30
2017-07-23T08:55:47.190Z,69.40
2017-07-23T08:58:15.438Z,65.30
2017-07-23T09:00:43.678Z,65.40
2017-07-23T09:03:11.147Z,65.30
2017-07-23T09:05:39.509Z,65.50
2017-07-23T09:08:07.769Z,66.40
2017-07-23T09:10:36.033Z,63.50
2017-07-23T09:13:04.398Z,62.50
2017-07-23T09:15:32.662Z,64.10
2017-07-23T09:18:00.926Z,62.30
2017-07-23T09:20:29.185Z,62.40
2017-07-23T09:22:57.718Z,61.90
2017-07-23T09:25:25.177Z,61.90
2017-07-23T09:27:53.450Z,61.70
2017-07-23T09:30:21.709Z,63.90
2017-07-23T09:32:49.974Z,61.90
2017-07-23T09:35:18.215Z,62.10
2017-07-23T09:37:45.765Z,62.10
2017-07-23T09:40:13.386Z,63.50
2017-07-23T09:42:40.849Z,62.30
2017-07-23T09:45:08.323Z,60.50
2017-07-23T09:47:36.603Z,58.90
2017-07-23T09:50:04.080Z,59.30
2017-07-23T09:52:31.545Z,58.50
2017-07-23T09:54:59.022Z,58.50
2017-07-23T09:57:27.274Z,59.10
2017-07-23T09:59:55.610Z,59.60
2017-07-23T10:02:23.181Z,59.60
2017-07-23T10:04:51.451Z,59.20
2017-07-23T10:07:18.990Z,59.20
2017-07-23T10:09:47.217Z,58.20
2017-07-23T10:12:14.795Z,58.10
2017-07-23T10:14:43.155Z,58.70
2017-07-23T10:17:10.626Z,58.60
2017-07-23T10:19:38.238Z,56.40
2017-07-23T10:22:06.806Z,56.90
2017-07-23T10:24:35.065Z,55.90
2017-07-23T10:27:03.347Z,56.30
2017-07-23T10:29:30.876Z,56.30
2017-07-23T10:31:59.106Z,57.60
2017-07-23T10:34:26.572Z,57.50
2017-07-23T10:36:54.838Z,59.30
2017-07-23T10:39:22.327Z,59.30
2017-07-23T10:41:50.595Z,59.70
2017-07-23T10:44:18.131Z,59.60
2017-07-23T10:46:46.389Z,59.10
2017-07-23T10:49:14.654Z,58.50
2017-07-23T10:51:42.195Z,58.40
2017-07-23T10:54:10.450Z,58.50
2017-07-23T10:56:38.719Z,58.30
2017-07-23T10:59:06.974Z,58.90
2017-07-23T11:01:35.226Z,59.10
2017-07-23T11:04:02.774Z,59.10
2017-07-23T11:06:31.005Z,56.50
2017-07-23T11:08:58.476Z,56.50
2017-07-23T11:11:26.842Z,56.60
2017-07-23T11:13:55.106Z,57.80
2017-07-23T11:16:23.338Z,57.60
2017-07-23T11:18:50.906Z,57.50
2017-07-23T11:21:19.138Z,58.30
2017-07-23T11:23:46.631Z,58.30
2017-07-23T11:26:14.145Z,57.30
2017-07-23T11:28:42.381Z,57.10
2017-07-23T11:31:09.878Z,57.10
2017-07-23T11:33:37.390Z,57.30
2017-07-23T11:36:04.939Z,57.00
2017-07-23T11:38:33.185Z,58.20
2017-07-23T11:41:00.741Z,58.20
2017-07-23T11:43:28.226Z,57.20
2017-07-23T11:45:55.758Z,56.90
2017-07-23T11:48:24.228Z,54.80
2017-07-23T11:50:52.491Z,54.80
2017-07-23T11:53:20.750Z,55.90
2017-07-23T11:55:49.006Z,56.00
2017-07-23T11:58:17.245Z,55.70
2017-07-23T12:00:44.718Z,55.60
2017-07-23T12:03:12.466Z,56.60
2017-07-23T12:05:39.934Z,54.60
2017-07-23T12:08:07.407Z,48.20
2017-07-23T12:10:35.062Z,43.20
2017-07-23T12:13:02.634Z,45.30
2017-07-23T12:15:30.862Z,47.70
2017-07-23T12:17:58.358Z,47.60
2017-07-23T12:20:25.878Z,48.00
2017-07-23T12:22:54.114Z,48.20
2017-07-23T12:25:21.593Z,48.20
2017-07-23T12:27:49.124Z,49.00
2017-07-23T12:30:17.355Z,49.70
2017-07-23T12:32:44.827Z,49.60
2017-07-23T12:35:13.088Z,50.20
2017-07-23T12:37:41.314Z,49.40
2017-07-23T12:40:09.628Z,49.00
2017-07-23T12:42:37.110Z,49.00
2017-07-23T12:45:04.667Z,48.50
2017-07-23T12:47:32.930Z,48.80
2017-07-23T12:50:01.289Z,48.30
2017-07-23T12:52:29.557Z,46.30
2017-07-23T12:54:57.789Z,47.10
2017-07-23T12:57:25.446Z,47.10
2017-07-23T12:59:53.009Z,47.20
2017-07-23T13:02:21.230Z,39.30
2017-07-23T13:04:48.803Z,39.20
2017-07-23T13:07:17.062Z,40.50
2017-07-23T13:09:45.326Z,41.00
2017-07-23T13:12:13.586Z,41.60
2017-07-23T13:14:41.950Z,44.30
2017-07-23T13:17:10.186Z,46.10
2017-07-23T13:19:37.750Z,46.10
2017-07-23T13:22:06.015Z,45.30
2017-07-23T13:24:34.251Z,44.90
2017-07-23T13:27:01.821Z,44.80
2017-07-23T13:29:30.083Z,41.20
2017-07-23T13:31:58.315Z,42.60
2017-07-23T13:34:25.790Z,42.60
2017-07-23T13:36:53.329Z,43.80
2017-07-23T13:39:21.686Z,45.00
2017-07-23T13:41:49.926Z,45.50
2017-07-23T13:44:17.386Z,45.50
2017-07-23T13:46:45.855Z,45.50
2017-07-23T13:49:14.114Z,45.40
2017-07-23T13:51:42.370Z,46.90
2017-07-23T13:54:10.734Z,47.40
2017-07-23T13:56:38.965Z,47.90
2017-07-23T13:59:06.437Z,47.90
2017-07-23T14:01:34.902Z,48.10
2017-07-23T14:04:03.168Z,45.60
2017-07-23T14:06:31.402Z,42.70
2017-07-23T14:08:58.967Z,42.70
2017-07-23T14:11:27.222Z,38.90
2017-07-23T14:13:55.485Z,39.60
2017-07-23T14:16:23.946Z,38.00
2017-07-23T14:18:52.209Z,36.80
2017-07-23T14:21:20.474Z,36.30
2017-07-23T14:23:48.730Z,35.20
2017-07-23T14:26:16.966Z,36.00
2017-07-23T14:28:44.434Z,36.00
2017-07-23T14:31:12.800Z,39.20
2017-07-23T14:33:40.342Z,39.20
2017-07-23T14:36:08.573Z,41.70
2017-07-23T14:38:36.158Z,41.70
2017-07-23T14:41:04.436Z,40.70
2017-07-23T14:43:31.966Z,40.70
2017-07-23T14:46:00.231Z,42.60
2017-07-23T14:48:28.486Z,42.40
2017-07-23T14:50:56.792Z,38.80
2017-07-23T14:53:24.489Z,38.80
2017-07-23T14:55:52.762Z,37.20
2017-07-23T14:58:21.022Z,34.10
2017-07-23T15:00:49.482Z,35.30
2017-07-23T15:03:17.742Z,33.80
2017-07-23T15:05:45.997Z,33.00
2017-07-23T15:08:14.357Z,31.40
2017-07-23T15:10:42.601Z,31.70
2017-07-23T15:13:10.263Z,31.70
2017-07-23T15:15:38.620Z,34.00
2017-07-23T15:18:06.889Z,35.90
2017-07-23T15:20:35.155Z,35.80
2017-07-23T15:23:03.412Z,36.00
2017-07-23T15:25:31.679Z,37.20
2017-07-23T15:27:59.931Z,37.40
2017-07-23T15:30:28.195Z,40.50
2017-07-23T15:32:56.427Z,41.40
2017-07-23T15:35:23.889Z,41.40
2017-07-23T15:37:52.258Z,45.70
2017-07-23T15:40:19.757Z,45.60
2017-07-23T15:42:47.994Z,46.60
2017-07-23T15:45:15.666Z,46.60
2017-07-23T15:47:43.928Z,47.80
2017-07-23T15:50:12.185Z,47.50
2017-07-23T15:52:40.551Z,45.20
2017-07-23T15:55:08.783Z,42.50
2017-07-23T15:57:36.246Z,42.40
2017-07-23T16:00:04.714Z,41.70
2017-07-23T16:02:32.950Z,41.20
2017-07-23T16:05:00.518Z,41.10
2017-07-23T16:07:28.786Z,41.10
2017-07-23T16:09:57.019Z,41.80
2017-07-23T16:12:24.581Z,41.80
2017-07-23T16:14:52.844Z,44.60
2017-07-23T16:17:21.110Z,45.20
2017-07-23T16:19:49.357Z,43.70
2017-07-23T16:22:17.622Z,44.20
2017-07-23T16:24:45.170Z,44.10
2017-07-23T16:27:13.403Z,42.00
2017-07-23T16:29:40.872Z,41.90
2017-07-23T16:32:08.419Z,39.70
2017-07-23T16:34:35.953Z,38.30
2017-07-23T16:37:04.213Z,37.40
2017-07-23T16:39:32.485Z,37.00
2017-07-23T16:42:00.946Z,37.90
2017-07-23T16:44:29.205Z,38.10
2017-07-23T16:46:57.470Z,38.00
2017-07-23T16:49:25.730Z,36.80
2017-07-23T16:51:53.973Z,38.30
2017-07-23T16:54:21.529Z,38.20
2017-07-23T16:56:49.991Z,42.00
2017-07-23T16:59:18.257Z,43.60
2017-07-23T17:01:46.494Z,44.50
2017-07-23T17:04:14.065Z,44.40
2017-07-23T17:06:42.295Z,44.10
2017-07-23T17:09:09.853Z,44.00
2017-07-23T17:11:38.126Z,45.40
2017-07-23T17:14:06.362Z,44.40
2017-07-23T17:16:33.932Z,44.40
2017-07-23T17:19:02.162Z,46.10
2017-07-23T17:21:29.625Z,46.10
2017-07-23T17:23:57.894Z,48.20
2017-07-23T17:26:26.150Z,49.10
2017-07-23T17:28:54.413Z,50.20
2017-07-23T17:31:22.642Z,50.90
2017-07-23T17:33:50.214Z,50.90
2017-07-23T17:36:18.678Z,52.10
2017-07-23T17:38:46.162Z,52.00
2017-07-23T17:41:14.390Z,53.20
2017-07-23T17:43:41.966Z,53.20
2017-07-23T17:46:10.198Z,53.20
2017-07-23T17:48:38.434Z,54.40
2017-07-23T17:51:06.134Z,54.30
2017-07-23T17:53:34.372Z,55.60
2017-07-23T17:56:01.939Z,55.50
2017-07-23T17:58:30.234Z,58.40
2017-07-23T18:00:57.698Z,58.40
2017-07-23T18:03:25.186Z,62.00
2017-07-23T18:05:53.449Z,69.60
2017-07-23T18:08:20.918Z,69.70
2017-07-23T18:10:48.422Z,76.20
2017-07-23T18:13:17.037Z,83.20
2017-07-23T18:15:44.542Z,82.30
2017-07-23T18:18:12.073Z,83.70
2017-07-23T18:20:40.306Z,87.40
2017-07-23T18:23:07.770Z,87.10
2017-07-23T18:25:35.321Z,86.50
2017-07-23T18:28:03.889Z,88.70
2017-07-23T18:30:32.118Z,87.90
2017-07-23T18:32:59.590Z,87.90
2017-07-23T18:35:27.850Z,86.20
2017-07-23T18:37:56.114Z,82.90
2017-07-23T18:40:23.584Z,82.80
2017-07-23T18:42:51.114Z,81.20
2017-07-23T18:45:19.350Z,83.00
2017-07-23T18:47:46.814Z,82.80
2017-07-23T18:50:15.078Z,82.20
2017-07-23T18:52:43.342Z,80.20
2017-07-23T18:55:11.597Z,78.50
2017-07-23T18:57:39.963Z,80.30
2017-07-23T19:00:08.225Z,82.70
2017-07-23T19:02:36.458Z,79.30
2017-07-23T19:05:04.021Z,79.20
2017-07-23T19:07:32.290Z,80.50
2017-07-23T19:10:00.541Z,80.50
2017-07-23T19:12:28.774Z,81.40
2017-07-23T19:14:56.251Z,81.30
2017-07-23T19:17:24.506Z,82.10
2017-07-23T19:19:52.747Z,81.30
2017-07-23T19:22:20.306Z,81.20
2017-07-23T19:24:48.573Z,82.50
2017-07-23T19:27:16.825Z,81.70
2017-07-23T19:29:45.089Z,81.10
2017-07-23T19:32:13.426Z,81.00
2017-07-23T19:34:41.003Z,82.10
2017-07-23T19:37:08.480Z,81.90
2017-07-23T19:39:36.745Z,81.70
2017-07-23T19:42:05.011Z,82.40
2017-07-23T19:44:33.246Z,82.80
2017-07-23T19:47:00.814Z,82.70
2017-07-23T19:49:29.069Z,83.00
2017-07-23T19:51:57.302Z,82.30
2017-07-23T19:54:24.778Z,82.20
2017-07-23T19:56:53.138Z,83.20
2017-07-23T19:59:21.372Z,80.50
2017-07-23T20:01:48.942Z,80.40
2017-07-23T20:04:17.202Z,82.10
2017-07-23T20:06:45.434Z,82.10
2017-07-23T20:09:12.909Z,82.10
2017-07-23T20:11:40.373Z,82.20
2017-07-23T20:14:07.843Z,82.10
2017-07-23T20:16:35.323Z,82.30
2017-07-23T20:19:03.605Z,82.40
2017-07-23T20:21:31.070Z,82.40
2017-07-23T20:23:58.578Z,82.50
2017-07-23T20:26:27.033Z,83.00
2017-07-23T20:28:55.262Z,83.20
2017-07-23T20:31:22.733Z,83.20
2017-07-23T20:33:51.010Z,84.00
2017-07-23T20:36:18.474Z,84.00
2017-07-23T20:38:46.185Z,84.20
2017-07-23T20:41:14.463Z,85.20
2017-07-23T20:43:41.926Z,85.20
2017-07-23T20:46:09.402Z,84.80
2017-07-23T20:48:36.902Z,85.10
2017-07-23T20:51:04.527Z,85.00
2017-07-23T20:53:32.792Z,85.30
2017-07-23T20:56:01.054Z,85.50
2017-07-23T20:58:28.522Z,85.50
2017-07-23T21:00:55.990Z,85.00
2017-07-23T21:03:23.502Z,86.10
2017-07-23T21:05:50.985Z,86.00
2017-07-23T21:08:18.460Z,86.20
2017-07-23T21:10:46.913Z,85.90
2017-07-23T21:13:15.177Z,86.00
2017-07-23T21:15:43.438Z,85.90
2017-07-23T21:18:11.678Z,85.50
2017-07-23T21:20:39.158Z,85.50
2017-07-23T21:23:06.686Z,85.60
2017-07-23T21:25:34.950Z,85.70
2017-07-23T21:28:03.208Z,85.70
2017-07-23T21:30:31.470Z,85.90
2017-07-23T21:32:59.698Z,85.90
2017-07-23T21:35:27.174Z,85.90
2017-07-23T21:37:54.654Z,85.40
2017-07-23T21:40:22.345Z,85.50
2017-07-23T21:42:50.582Z,86.10
2017-07-23T21:45:18.046Z,86.00
2017-07-23T21:47:46.319Z,86.50
2017-07-23T21:50:13.853Z,86.50
2017-07-23T21:52:42.113Z,86.50
2017-07-23T21:55:10.390Z,87.10
2017-07-23T21:57:37.862Z,86.30
2017-07-23T22:00:05.366Z,86.40
2017-07-23T22:02:33.609Z,86.70
2017-07-23T22:05:01.883Z,87.10
2017-07-23T22:07:29.425Z,86.90
2017-07-23T22:09:57.683Z,86.70
2017-07-23T22:12:25.946Z,86.70
2017-07-23T22:14:54.228Z,86.90
2017-07-23T22:17:21.755Z,86.90
2017-07-23T22:19:50.014Z,86.70
2017-07-23T22:22:17.501Z,86.70
2017-07-23T22:24:44.998Z,87.10
2017-07-23T22:27:13.241Z,86.40
2017-07-23T22:29:41.618Z,87.20
2017-07-23T22:32:09.883Z,86.30
2017-07-23T22:34:37.353Z,86.20
2017-07-23T22:37:04.866Z,86.70
2017-07-23T22:39:32.330Z,86.70
2017-07-23T22:41:59.885Z,87.00
2017-07-23T22:44:28.150Z,87.10
2017-07-23T22:46:56.381Z,86.60
2017-07-23T22:49:23.954Z,87.30
2017-07-23T22:51:52.194Z,86.40
2017-07-23T22:54:19.763Z,86.40
2017-07-23T22:56:48.117Z,86.30
2017-07-23T22:59:16.353Z,86.60
2017-07-23T23:01:43.925Z,86.40
2017-07-23T23:04:12.287Z,85.70
2017-07-23T23:06:40.547Z,85.60
2017-07-23T23:09:08.786Z,85.20
2017-07-23T23:11:36.266Z,85.10
2017-07-23T23:14:03.737Z,85.70
2017-07-23T23:16:31.230Z,85.40
2017-07-23T23:18:59.462Z,84.60
2017-07-23T23:21:27.063Z,84.50
2017-07-23T23:23:55.340Z,84.50
2017-07-23T23:26:22.838Z,84.50
2017-07-23T23:28:51.314Z,84.80
2017-07-23T23:31:18.787Z,84.70
2017-07-23T23:33:46.274Z,82.90
2017-07-23T23:36:14.549Z,83.70
2017-07-23T23:38:42.794Z,84.30
2017-07-23T23:41:10.354Z,84.30
2017-07-23T23:43:38.610Z,84.20
2017-07-23T23:46:06.851Z,84.80
2017-07-23T23:48:34.322Z,84.70
2017-07-23T23:51:01.867Z,85.90
2017-07-23T23:53:29.410Z,84.00
2017-07-23T23:55:56.949Z,85.60
2017-07-23T23:58:24.446Z,85.80
